createdAt,value
2023-02-05T00:01:50.364Z,-3.46
2023-02-05T00:04:19.816Z,-3.47
2023-02-05T00:06:48.103Z,-3.79
2023-02-05T00:09:16.920Z,-3.70
2023-02-05T00:11:45.116Z,-3.47
2023-02-05T00:14:13.000Z,-3.43
2023-02-05T00:16:41.221Z,-3.42
2023-02-05T00:19:09.409Z,-3.40
2023-02-05T00:21:37.648Z,-3.43
2023-02-05T00:24:07.783Z,-3.45
2023-02-05T00:26:36.441Z,-3.41
2023-02-05T00:29:05.313Z,-3.45
2023-02-05T00:31:34.074Z,-4.16
2023-02-05T00:34:03.875Z,-3.50
2023-02-05T00:36:32.706Z,-3.73
2023-02-05T00:39:00.821Z,-3.48
2023-02-05T00:41:29.434Z,-3.51
2023-02-05T00:43:58.045Z,-3.44
2023-02-05T00:46:26.188Z,-3.48
2023-02-05T00:48:54.837Z,-3.81
2023-02-05T00:51:23.316Z,-3.51
2023-02-05T00:53:51.903Z,-3.49
2023-02-05T00:56:20.295Z,-3.90
2023-02-05T00:58:50.121Z,-3.59
2023-02-05T01:01:18.514Z,-3.56
2023-02-05T01:03:47.419Z,-3.50
2023-02-05T01:06:15.748Z,-3.58
2023-02-05T01:08:43.906Z,-3.65
2023-02-05T01:11:12.241Z,-3.59
2023-02-05T01:13:40.395Z,-3.60
2023-02-05T01:16:10.717Z,-3.57
2023-02-05T01:18:39.730Z,-4.05
2023-02-05T01:21:07.805Z,-3.63
2023-02-05T01:23:36.001Z,-3.68
2023-02-05T01:26:04.875Z,-3.68
2023-02-05T01:28:32.996Z,-3.72
2023-02-05T01:31:01.871Z,-3.66
2023-02-05T01:33:30.727Z,-3.96
2023-02-05T01:35:58.921Z,-3.73
2023-02-05T01:38:27.320Z,-3.68
2023-02-05T01:40:55.578Z,-4.02
2023-02-05T01:43:23.984Z,-3.68
2023-02-05T01:46:19.446Z,-3.94
2023-02-05T01:48:53.597Z,-4.01
2023-02-05T01:51:23.949Z,-3.67
2023-02-05T01:53:53.929Z,-3.95
2023-02-05T01:56:33.746Z,-3.95
2023-02-05T01:59:12.025Z,-3.63
2023-02-05T02:01:42.334Z,-3.61
2023-02-05T02:04:12.960Z,-3.64
2023-02-05T02:06:41.198Z,-3.97
2023-02-05T02:09:09.457Z,-3.67
2023-02-05T02:11:43.807Z,-3.97
2023-02-05T02:14:13.159Z,-3.68
2023-02-05T02:16:42.014Z,-3.88
2023-02-05T02:19:26.204Z,-3.91
2023-02-05T02:22:11.877Z,-3.60
2023-02-05T02:25:19.708Z,-3.62
2023-02-05T02:28:25.592Z,-3.61
2023-02-05T02:31:28.126Z,-3.56
2023-02-05T02:34:41.155Z,-4.55
2023-02-05T02:37:18.211Z,-3.88
2023-02-05T02:39:58.162Z,-3.51
2023-02-05T02:42:44.044Z,-3.56
2023-02-05T02:45:14.745Z,-3.47
2023-02-05T02:47:52.659Z,-3.51
2023-02-05T02:50:35.661Z,-3.59
2023-02-05T02:53:22.346Z,-3.84
2023-02-05T02:55:52.279Z,-3.51
2023-02-05T02:58:36.745Z,-3.59
2023-02-05T03:01:08.403Z,-3.54
2023-02-05T03:03:46.242Z,-3.53
2023-02-05T03:06:16.740Z,-3.88
2023-02-05T03:08:53.330Z,-3.78
2023-02-05T03:11:21.433Z,-3.54
2023-02-05T03:13:49.986Z,-3.90
2023-02-05T03:16:22.792Z,-3.79
2023-02-05T03:18:51.471Z,-3.92
2023-02-05T03:21:34.760Z,-3.81
2023-02-05T03:24:02.815Z,-3.59
2023-02-05T03:26:38.612Z,-3.53
2023-02-05T03:29:31.216Z,-3.57
2023-02-05T03:32:30.022Z,-3.54
2023-02-05T03:35:31.573Z,-3.51
2023-02-05T03:38:16.328Z,-3.54
2023-02-05T03:40:58.211Z,-3.54
2023-02-05T03:43:53.760Z,-3.60
2023-02-05T03:46:45.461Z,-4.31
2023-02-05T03:49:21.262Z,-3.67
2023-02-05T03:52:27.349Z,-3.61
2023-02-05T03:55:21.904Z,-3.65
2023-02-05T03:58:04.680Z,-3.90
2023-02-05T04:00:33.834Z,-3.64
2023-02-05T04:03:03.819Z,-3.56
2023-02-05T04:05:33.855Z,-3.69
2023-02-05T04:08:04.801Z,-3.90
2023-02-05T04:10:39.533Z,-3.63
2023-02-05T04:13:07.898Z,-3.63
2023-02-05T04:15:37.578Z,-3.97
2023-02-05T04:18:09.759Z,-3.97
2023-02-05T04:20:38.155Z,-3.99
2023-02-05T04:23:08.678Z,-3.69
2023-02-05T04:25:39.553Z,-3.70
2023-02-05T04:28:12.852Z,-3.67
2023-02-05T04:30:41.213Z,-3.79
2023-02-05T04:33:11.321Z,-3.69
2023-02-05T04:35:40.634Z,-3.91
2023-02-05T04:38:08.826Z,-4.31
2023-02-05T04:40:37.216Z,-3.81
2023-02-05T04:43:05.046Z,-3.67
2023-02-05T04:45:33.779Z,-3.61
2023-02-05T04:48:02.298Z,-3.66
2023-02-05T04:50:30.375Z,-4.02
2023-02-05T04:52:58.358Z,-3.65
2023-02-05T04:55:26.561Z,-3.63
2023-02-05T04:57:54.400Z,-3.61
2023-02-05T05:00:23.124Z,-3.57
2023-02-05T05:02:51.166Z,-3.74
2023-02-05T05:05:19.660Z,-3.62
2023-02-05T05:07:47.718Z,-3.65
2023-02-05T05:10:16.024Z,-3.93
2023-02-05T05:12:43.919Z,-3.59
2023-02-05T05:15:12.197Z,-3.64
2023-02-05T05:17:40.609Z,-3.70
2023-02-05T05:20:09.549Z,-3.66
2023-02-05T05:22:37.862Z,-3.95
2023-02-05T05:25:06.261Z,-3.68
2023-02-05T05:27:34.470Z,-3.88
2023-02-05T05:30:02.679Z,-3.62
2023-02-05T05:32:30.760Z,-3.92
2023-02-05T05:34:58.778Z,-3.73
2023-02-05T05:37:26.948Z,-3.84
2023-02-05T05:40:13.618Z,-4.26
2023-02-05T05:43:00.598Z,-3.84
2023-02-05T05:45:28.828Z,-3.75
2023-02-05T05:47:56.996Z,-4.05
2023-02-05T05:50:25.097Z,-3.79
2023-02-05T05:52:53.273Z,-3.79
2023-02-05T05:55:21.642Z,-3.84
2023-02-05T05:57:49.853Z,-3.76
2023-02-05T06:00:18.464Z,-3.74
2023-02-05T06:02:46.473Z,-3.87
2023-02-05T06:05:14.722Z,-4.09
2023-02-05T06:07:42.608Z,-3.79
2023-02-05T06:10:10.991Z,-3.99
2023-02-05T06:12:39.068Z,-3.65
2023-02-05T06:15:07.852Z,-4.02
2023-02-05T06:17:36.022Z,-3.72
2023-02-05T06:20:06.137Z,-4.04
2023-02-05T06:22:34.113Z,-3.94
2023-02-05T06:25:02.500Z,-3.83
2023-02-05T06:27:30.832Z,-3.83
2023-02-05T06:29:58.722Z,-3.74
2023-02-05T06:32:27.415Z,-3.74
2023-02-05T06:34:55.806Z,-4.11
2023-02-05T06:37:34.214Z,-3.77
2023-02-05T06:40:15.839Z,-3.89
2023-02-05T06:42:45.255Z,-3.85
2023-02-05T06:45:13.522Z,-4.11
2023-02-05T06:47:41.977Z,-3.66
2023-02-05T06:50:10.511Z,-3.73
2023-02-05T06:52:38.863Z,-3.57
2023-02-05T06:55:07.618Z,-3.63
2023-02-05T06:57:36.129Z,-3.86
2023-02-05T07:00:09.093Z,-3.56
2023-02-05T07:02:37.409Z,-3.48
2023-02-05T07:05:05.784Z,-3.49
2023-02-05T07:07:34.605Z,-3.44
2023-02-05T07:10:03.405Z,-3.44
2023-02-05T07:12:32.386Z,-3.48
2023-02-05T07:15:00.627Z,-3.29
2023-02-05T07:17:28.970Z,-3.50
2023-02-05T07:19:58.932Z,-2.95
2023-02-05T07:22:27.272Z,-2.59
2023-02-05T07:24:55.688Z,-2.75
2023-02-05T07:27:24.394Z,-2.72
2023-02-05T07:29:52.559Z,-2.38
2023-02-05T07:32:20.781Z,-2.91
2023-02-05T07:34:48.960Z,-2.56
2023-02-05T07:37:19.087Z,-3.14
2023-02-05T07:39:48.736Z,-2.75
2023-02-05T07:42:17.395Z,-2.80
2023-02-05T07:44:52.231Z,-2.75
2023-02-05T07:47:21.208Z,-2.70
2023-02-05T07:49:49.144Z,-3.02
2023-02-05T07:52:17.350Z,-2.96
2023-02-05T07:54:45.777Z,-2.68
2023-02-05T07:57:13.871Z,-2.27
2023-02-05T07:59:42.244Z,-1.59
2023-02-05T08:02:12.265Z,-1.08
2023-02-05T08:04:40.685Z,-1.31
2023-02-05T08:07:12.244Z,-1.56
2023-02-05T08:09:41.025Z,-1.49
2023-02-05T08:12:09.216Z,-2.01
2023-02-05T08:14:39.202Z,-1.78
2023-02-05T08:17:08.179Z,-1.99
2023-02-05T08:19:37.003Z,-1.31
2023-02-05T08:22:05.257Z,-1.21
2023-02-05T08:24:33.609Z,-0.77
2023-02-05T08:27:01.858Z,-0.47
2023-02-05T08:29:30.576Z,-0.45
2023-02-05T08:32:00.390Z,-0.22
2023-02-05T08:34:29.406Z,-0.23
2023-02-05T08:36:58.286Z,0.24
2023-02-05T08:39:26.944Z,0.33
2023-02-05T08:41:57.052Z,0.76
2023-02-05T08:44:25.816Z,-0.03
2023-02-05T08:46:54.534Z,-0.64
2023-02-05T08:49:23.354Z,-0.38
2023-02-05T08:51:52.019Z,0.24
2023-02-05T08:54:20.714Z,-0.12
2023-02-05T08:56:51.570Z,-0.28
2023-02-05T08:59:22.415Z,0.27
2023-02-05T09:01:50.836Z,0.08
2023-02-05T09:04:23.870Z,0.21
2023-02-05T09:06:52.582Z,0.35
2023-02-05T09:09:20.779Z,0.05
2023-02-05T09:11:49.863Z,0.53
2023-02-05T09:14:18.130Z,0.50
2023-02-05T09:16:46.451Z,-0.11
2023-02-05T09:19:14.550Z,-0.13
2023-02-05T09:21:42.693Z,-0.61
2023-02-05T09:24:10.967Z,-0.29
2023-02-05T09:26:39.423Z,-0.05
2023-02-05T09:29:07.735Z,-0.55
2023-02-05T09:31:35.961Z,0.06
2023-02-05T09:34:04.672Z,0.21
2023-02-05T09:36:33.447Z,0.28
2023-02-05T09:39:15.024Z,0.44
2023-02-05T09:42:28.259Z,0.89
2023-02-05T09:45:35.622Z,0.65
2023-02-05T09:48:23.514Z,1.04
2023-02-05T09:50:52.408Z,1.49
2023-02-05T09:53:22.813Z,0.78
2023-02-05T09:55:51.250Z,0.90
2023-02-05T09:58:28.980Z,1.60
2023-02-05T10:01:09.012Z,1.41
2023-02-05T10:03:50.290Z,1.65
2023-02-05T10:06:49.588Z,2.26
2023-02-05T10:09:26.163Z,2.92
2023-02-05T10:12:06.956Z,2.60
2023-02-05T10:15:03.340Z,2.96
2023-02-05T10:17:53.625Z,4.09
2023-02-05T10:20:38.253Z,4.15
2023-02-05T10:23:44.673Z,1.88
2023-02-05T10:26:21.047Z,1.37
2023-02-05T10:29:22.735Z,1.18
2023-02-05T10:32:24.754Z,0.87
2023-02-05T10:35:25.273Z,0.63
2023-02-05T10:37:57.761Z,0.14
2023-02-05T10:40:39.566Z,0.01
2023-02-05T10:43:39.907Z,-0.69
2023-02-05T10:46:14.563Z,-0.67
2023-02-05T10:49:01.621Z,-0.26
2023-02-05T10:51:43.838Z,-0.53
2023-02-05T10:54:33.975Z,-0.77
2023-02-05T10:57:02.507Z,-0.54
2023-02-05T10:59:36.702Z,-1.25
2023-02-05T11:02:09.996Z,-0.60
2023-02-05T11:04:55.640Z,-0.18
2023-02-05T11:07:44.905Z,-0.40
2023-02-05T11:10:25.479Z,-0.02
2023-02-05T11:13:20.495Z,-0.77
2023-02-05T11:16:04.938Z,-0.57
2023-02-05T11:18:55.116Z,-0.97
2023-02-05T11:21:23.709Z,-0.54
2023-02-05T11:23:57.623Z,-0.56
2023-02-05T11:26:28.691Z,-0.61
2023-02-05T11:28:58.622Z,-0.75
2023-02-05T11:31:34.968Z,-1.23
2023-02-05T11:34:09.440Z,-1.10
2023-02-05T11:36:48.332Z,-1.56
2023-02-05T11:39:40.795Z,-0.98
2023-02-05T11:42:25.140Z,-0.88
2023-02-05T11:45:00.947Z,-1.35
2023-02-05T11:47:37.434Z,-1.30
2023-02-05T11:50:18.894Z,-1.55
2023-02-05T11:52:47.433Z,-2.09
2023-02-05T11:55:32.198Z,-1.45
2023-02-05T11:58:34.811Z,-1.65
2023-02-05T12:01:29.328Z,-1.38
2023-02-05T12:04:11.144Z,-1.58
2023-02-05T12:06:55.902Z,-1.40
2023-02-05T12:09:28.227Z,-1.57
2023-02-05T12:12:24.084Z,-1.23
2023-02-05T12:15:15.887Z,-1.34
2023-02-05T12:17:50.677Z,-1.33
2023-02-05T12:20:24.767Z,-1.29
2023-02-05T12:23:25.628Z,-1.60
2023-02-05T12:26:29.486Z,-1.56
2023-02-05T12:29:19.707Z,-1.47
2023-02-05T12:32:34.760Z,-1.48
2023-02-05T12:36:12.112Z,-1.49
2023-02-05T12:39:14.172Z,-1.85
2023-02-05T12:41:44.157Z,-1.64
2023-02-05T12:44:38.321Z,-1.35
2023-02-05T12:48:09.490Z,-1.43
2023-02-05T12:50:52.957Z,-1.56
2023-02-05T12:53:52.553Z,-1.30
2023-02-05T12:56:50.301Z,-1.40
2023-02-05T12:59:51.527Z,-1.01
2023-02-05T13:02:58.260Z,-1.68
2023-02-05T13:05:55.726Z,-1.51
2023-02-05T13:09:10.777Z,-1.44
2023-02-05T13:11:59.874Z,-1.49
2023-02-05T13:14:37.344Z,-0.94
2023-02-05T13:17:20.544Z,-0.86
2023-02-05T13:20:05.987Z,-1.13
2023-02-05T13:23:06.282Z,-0.91
2023-02-05T13:26:07.796Z,-0.65
2023-02-05T13:29:13.609Z,-0.93
2023-02-05T13:31:48.501Z,-0.87
2023-02-05T13:34:18.818Z,-0.93
2023-02-05T13:37:18.180Z,-0.93
2023-02-05T13:40:10.805Z,-1.13
2023-02-05T13:43:38.346Z,-1.23
2023-02-05T13:46:25.379Z,-1.52
2023-02-05T13:49:20.956Z,-1.68
2023-02-05T13:52:07.288Z,-1.60
2023-02-05T13:54:49.936Z,-1.55
2023-02-05T13:57:58.039Z,-1.54
2023-02-05T14:00:28.048Z,-2.41
2023-02-05T14:02:58.385Z,-2.28
2023-02-05T14:05:43.563Z,-1.90
2023-02-05T14:08:32.001Z,-2.30
2023-02-05T14:11:05.653Z,-2.82
2023-02-05T14:13:36.157Z,-2.57
2023-02-05T14:16:26.551Z,-2.47
2023-02-05T14:19:01.357Z,-2.36
2023-02-05T14:21:33.044Z,-2.33
2023-02-05T14:24:19.754Z,-2.37
2023-02-05T14:26:52.478Z,-2.56
2023-02-05T14:29:41.495Z,-2.54
2023-02-05T14:32:28.690Z,-2.50
2023-02-05T14:35:04.317Z,-2.54
2023-02-05T14:37:45.833Z,-2.49
2023-02-05T14:40:37.313Z,-2.47
2023-02-05T14:43:31.344Z,-2.60
2023-02-05T14:46:07.053Z,-2.68
2023-02-05T14:48:42.686Z,-2.64
2023-02-05T14:51:32.485Z,-2.62
2023-02-05T14:54:24.553Z,-2.86
2023-02-05T14:57:10.948Z,-2.88
2023-02-05T14:59:50.651Z,-2.67
2023-02-05T15:03:05.804Z,-2.57
2023-02-05T15:05:47.324Z,-2.94
2023-02-05T15:08:44.684Z,-2.67
2023-02-05T15:11:34.150Z,-2.71
2023-02-05T15:14:31.046Z,-2.77
2023-02-05T15:17:10.780Z,-2.87
2023-02-05T15:19:52.746Z,-2.83
2023-02-05T15:22:41.368Z,-2.89
2023-02-05T15:25:23.257Z,-3.75
2023-02-05T15:27:59.919Z,-2.86
2023-02-05T15:30:47.813Z,-3.15
2023-02-05T15:33:29.674Z,-3.25
2023-02-05T15:35:59.097Z,-3.32
2023-02-05T15:38:43.646Z,-3.08
2023-02-05T15:41:15.830Z,-3.13
2023-02-05T15:44:00.786Z,-3.23
2023-02-05T15:46:32.530Z,-3.53
2023-02-05T15:49:01.672Z,-3.16
2023-02-05T15:51:34.536Z,-3.53
2023-02-05T15:54:05.878Z,-3.54
2023-02-05T15:56:45.007Z,-3.26
2023-02-05T15:59:17.632Z,-3.31
2023-02-05T16:02:16.340Z,-3.50
2023-02-05T16:04:45.270Z,-3.42
2023-02-05T16:07:23.903Z,-3.10
2023-02-05T16:09:56.637Z,-3.16
2023-02-05T16:12:26.384Z,-3.34
2023-02-05T16:15:05.999Z,-3.56
2023-02-05T16:17:49.368Z,-3.60
2023-02-05T16:20:34.458Z,-3.22
2023-02-05T16:23:11.397Z,-3.34
2023-02-05T16:25:53.903Z,-3.18
2023-02-05T16:28:52.509Z,-3.11
2023-02-05T16:31:27.258Z,-3.16
2023-02-05T16:34:13.562Z,-3.17
2023-02-05T16:36:49.084Z,-3.30
2023-02-05T16:39:40.079Z,-3.33
2023-02-05T16:42:28.669Z,-3.61
2023-02-05T16:45:08.708Z,-3.37
2023-02-05T16:47:38.295Z,-3.63
2023-02-05T16:50:42.840Z,-3.36
2023-02-05T16:53:47.109Z,-3.33
2023-02-05T16:56:29.591Z,-3.33
2023-02-05T16:59:01.917Z,-3.50
2023-02-05T17:01:39.315Z,-3.49
2023-02-05T17:04:08.574Z,-3.79
2023-02-05T17:06:38.652Z,-3.45
2023-02-05T17:09:10.322Z,-3.54
2023-02-05T17:11:43.159Z,-3.55
2023-02-05T17:14:33.340Z,-3.83
2023-02-05T17:17:17.815Z,-3.53
2023-02-05T17:20:29.254Z,-3.59
2023-02-05T17:23:03.771Z,-3.84
2023-02-05T17:25:55.683Z,-3.79
2023-02-05T17:28:30.069Z,-3.58
2023-02-05T17:30:59.407Z,-3.48
2023-02-05T17:33:29.851Z,-3.90
2023-02-05T17:35:58.310Z,-3.58
2023-02-05T17:38:26.866Z,-3.59
2023-02-05T17:41:15.230Z,-3.62
2023-02-05T17:43:43.830Z,-3.53
2023-02-05T17:46:15.402Z,-3.76
2023-02-05T17:48:45.115Z,-3.54
2023-02-05T17:51:21.034Z,-3.93
2023-02-05T17:53:50.827Z,-3.62
2023-02-05T17:56:21.426Z,-3.98
2023-02-05T17:58:51.659Z,-3.63
2023-02-05T18:01:20.849Z,-3.83
2023-02-05T18:03:50.281Z,-3.74
2023-02-05T18:06:19.997Z,-3.66
2023-02-05T18:08:51.600Z,-4.04
2023-02-05T18:11:20.441Z,-3.65
2023-02-05T18:13:48.667Z,-3.67
2023-02-05T18:16:17.620Z,-3.69
2023-02-05T18:18:47.012Z,-3.66
2023-02-05T18:21:15.770Z,-3.66
2023-02-05T18:23:44.314Z,-3.67
2023-02-05T18:26:13.279Z,-3.73
2023-02-05T18:28:41.977Z,-3.65
2023-02-05T18:31:11.360Z,-3.70
2023-02-05T18:33:40.892Z,-3.61
2023-02-05T18:36:14.476Z,-3.80
2023-02-05T18:38:44.031Z,-3.58
2023-02-05T18:41:23.770Z,-3.66
2023-02-05T18:43:59.589Z,-3.88
2023-02-05T18:46:29.413Z,-3.91
2023-02-05T18:48:58.112Z,-3.97
2023-02-05T18:51:27.785Z,-3.70
2023-02-05T18:53:57.273Z,-3.68
2023-02-05T18:56:27.538Z,-3.60
2023-02-05T18:59:03.391Z,-3.56
2023-02-05T19:01:34.975Z,-3.58
2023-02-05T19:04:11.286Z,-3.65
2023-02-05T19:06:44.987Z,-3.69
2023-02-05T19:09:14.190Z,-3.76
2023-02-05T19:11:43.763Z,-3.59
2023-02-05T19:14:16.273Z,-3.65
2023-02-05T19:16:45.908Z,-3.62
2023-02-05T19:19:22.601Z,-3.58
2023-02-05T19:21:55.171Z,-3.60
2023-02-05T19:24:23.814Z,-3.51
2023-02-05T19:26:56.846Z,-3.69
2023-02-05T19:29:28.696Z,-3.58
2023-02-05T19:31:58.824Z,-3.93
2023-02-05T19:34:28.011Z,-3.47
2023-02-05T19:36:56.438Z,-3.48
2023-02-05T19:39:24.928Z,-3.48
2023-02-05T19:41:55.998Z,-3.75
2023-02-05T19:44:24.581Z,-3.48
2023-02-05T19:46:53.390Z,-3.54
2023-02-05T19:49:24.384Z,-3.54
2023-02-05T19:51:55.420Z,-3.44
2023-02-05T19:54:25.737Z,-3.68
2023-02-05T19:56:54.110Z,-3.47
2023-02-05T19:59:22.972Z,-3.47
2023-02-05T20:01:51.290Z,-3.44
2023-02-05T20:04:26.391Z,-3.49
2023-02-05T20:07:00.655Z,-3.44
2023-02-05T20:09:29.342Z,-3.72
2023-02-05T20:11:57.360Z,-3.48
2023-02-05T20:14:26.011Z,-3.77
2023-02-05T20:16:54.757Z,-3.45
2023-02-05T20:19:22.915Z,-3.46
2023-02-05T20:21:54.844Z,-3.46
2023-02-05T20:24:23.685Z,-3.45
2023-02-05T20:26:53.344Z,-3.94
2023-02-05T20:29:40.691Z,-3.44
2023-02-05T20:32:10.917Z,-3.51
2023-02-05T20:34:45.225Z,-3.70
2023-02-05T20:37:14.036Z,-3.40
2023-02-05T20:39:44.179Z,-3.39
2023-02-05T20:42:14.686Z,-3.69
2023-02-05T20:44:44.599Z,-3.69
2023-02-05T20:47:15.598Z,-3.44
2023-02-05T20:49:44.897Z,-3.47
2023-02-05T20:52:13.447Z,-3.46
2023-02-05T20:54:41.929Z,-3.47
2023-02-05T20:57:10.491Z,-3.47
2023-02-05T20:59:39.018Z,-3.46
2023-02-05T21:02:08.073Z,-3.49
2023-02-05T21:04:37.152Z,-3.38
2023-02-05T21:07:05.660Z,-3.39
2023-02-05T21:09:34.424Z,-3.41
2023-02-05T21:12:03.142Z,-3.46
2023-02-05T21:14:34.067Z,-3.42
2023-02-05T21:17:03.114Z,-3.43
2023-02-05T21:19:31.852Z,-3.45
2023-02-05T21:22:00.601Z,-3.41
2023-02-05T21:24:29.069Z,-3.40
2023-02-05T21:26:57.196Z,-3.39
2023-02-05T21:29:26.039Z,-3.43
2023-02-05T21:31:56.150Z,-3.48
2023-02-05T21:34:28.019Z,-3.42
2023-02-05T21:36:56.985Z,-3.47
2023-02-05T21:39:26.256Z,-3.40
2023-02-05T21:41:55.065Z,-3.44
2023-02-05T21:44:24.534Z,-3.37
2023-02-05T21:46:54.769Z,-3.36
2023-02-05T21:49:23.306Z,-3.36
2023-02-05T21:51:53.553Z,-3.36
2023-02-05T21:54:25.457Z,-3.34
2023-02-05T21:56:54.453Z,-3.35
2023-02-05T21:59:23.408Z,-3.58
2023-02-05T22:01:52.577Z,-3.67
2023-02-05T22:04:21.957Z,-3.33
2023-02-05T22:06:50.945Z,-3.30
2023-02-05T22:09:19.478Z,-3.28
2023-02-05T22:11:51.491Z,-3.28
2023-02-05T22:14:20.870Z,-3.26
2023-02-05T22:16:49.459Z,-3.22
2023-02-05T22:19:17.990Z,-3.53
2023-02-05T22:21:46.279Z,-3.23
2023-02-05T22:24:17.477Z,-3.24
2023-02-05T22:26:47.642Z,-3.50
2023-02-05T22:29:20.605Z,-3.50
2023-02-05T22:31:59.034Z,-3.27
2023-02-05T22:34:28.205Z,-3.21
2023-02-05T22:36:56.397Z,-3.25
2023-02-05T22:39:24.404Z,-3.17
2023-02-05T22:41:52.611Z,-3.43
2023-02-05T22:44:21.052Z,-3.18
2023-02-05T22:46:49.406Z,-3.21
2023-02-05T22:49:17.687Z,-3.55
2023-02-05T22:51:46.160Z,-3.30
2023-02-05T22:54:15.418Z,-3.58
2023-02-05T22:56:45.009Z,-3.30
2023-02-05T22:59:13.530Z,-3.39
2023-02-05T23:01:41.941Z,-3.37
2023-02-05T23:04:10.650Z,-3.68
2023-02-05T23:06:42.915Z,-3.30
2023-02-05T23:09:18.326Z,-3.62
2023-02-05T23:11:47.143Z,-3.59
2023-02-05T23:14:17.529Z,-3.37
2023-02-05T23:16:48.587Z,-3.36
2023-02-05T23:19:20.661Z,-3.42
2023-02-05T23:21:49.346Z,-3.50
2023-02-05T23:24:18.432Z,-3.45
2023-02-05T23:26:50.819Z,-3.45
2023-02-05T23:29:19.467Z,-3.76
2023-02-05T23:31:48.289Z,-3.37
2023-02-05T23:34:16.546Z,-3.39
2023-02-05T23:36:44.773Z,-3.39
2023-02-05T23:39:13.620Z,-3.45
2023-02-05T23:41:42.013Z,-3.43
2023-02-05T23:44:15.085Z,-3.47
2023-02-05T23:46:45.472Z,-3.48
2023-02-05T23:49:15.798Z,-3.59
2023-02-05T23:51:44.111Z,-3.44
2023-02-05T23:54:12.587Z,-3.52
2023-02-05T23:56:41.808Z,-3.78
2023-02-05T23:59:13.125Z,-3.50
